createdAt,value
2023-04-25T00:01:37.164Z,12.19
2023-04-25T00:03:40.484Z,12.18
2023-04-25T00:05:43.456Z,12.19
2023-04-25T00:07:47.131Z,12.18
2023-04-25T00:09:49.965Z,12.13
2023-04-25T00:11:52.507Z,12.12
2023-04-25T00:13:55.463Z,12.11
2023-04-25T00:15:59.201Z,12.08
2023-04-25T00:18:01.935Z,12.07
2023-04-25T00:20:10.731Z,12.06
2023-04-25T00:22:14.453Z,12.04
2023-04-25T00:24:17.032Z,12.01
2023-04-25T00:26:19.833Z,12.00
2023-04-25T00:28:22.376Z,11.99
2023-04-25T00:30:25.013Z,11.98
2023-04-25T00:32:27.987Z,11.97
2023-04-25T00:34:30.561Z,11.95
2023-04-25T00:36:33.176Z,11.96
2023-04-25T00:38:35.872Z,11.96
2023-04-25T00:40:38.466Z,11.97
2023-04-25T00:42:42.921Z,11.98
2023-04-25T00:44:46.376Z,11.98
2023-04-25T00:46:50.607Z,11.97
2023-04-25T00:48:53.355Z,11.96
2023-04-25T00:50:58.920Z,11.96
2023-04-25T00:53:02.011Z,11.94
2023-04-25T00:55:05.380Z,11.94
2023-04-25T00:57:08.076Z,11.92
2023-04-25T00:59:11.153Z,11.91
2023-04-25T01:01:14.559Z,11.89
2023-04-25T01:03:18.636Z,11.89
2023-04-25T01:05:21.348Z,11.90
2023-04-25T01:07:23.986Z,11.87
2023-04-25T01:09:27.255Z,11.87
2023-04-25T01:11:29.810Z,11.86
2023-04-25T01:13:33.358Z,11.84
2023-04-25T01:15:37.203Z,11.83
2023-04-25T01:17:42.554Z,11.82
2023-04-25T01:19:47.159Z,11.83
2023-04-25T01:21:49.968Z,11.81
2023-04-25T01:23:52.993Z,11.80
2023-04-25T01:25:56.402Z,11.80
2023-04-25T01:27:59.832Z,11.80
2023-04-25T01:30:02.515Z,11.80
2023-04-25T01:32:09.492Z,11.79
2023-04-25T01:34:13.452Z,11.80
2023-04-25T01:36:16.580Z,11.85
2023-04-25T01:38:19.118Z,11.85
2023-04-25T01:40:23.585Z,11.87
2023-04-25T01:42:26.271Z,11.87
2023-04-25T01:44:29.268Z,11.87
2023-04-25T01:46:32.367Z,11.88
2023-04-25T01:48:35.114Z,11.87
2023-04-25T01:50:39.559Z,11.89
2023-04-25T01:52:42.156Z,11.90
2023-04-25T01:54:45.847Z,11.91
2023-04-25T01:56:52.318Z,11.91
2023-04-25T01:58:55.207Z,11.93
2023-04-25T02:00:57.999Z,11.96
2023-04-25T02:03:00.712Z,11.98
2023-04-25T02:05:03.709Z,12.00
2023-04-25T02:07:06.875Z,12.02
2023-04-25T02:09:09.490Z,12.02
2023-04-25T02:11:12.507Z,12.05
2023-04-25T02:13:15.128Z,12.06
2023-04-25T02:15:17.881Z,12.10
2023-04-25T02:17:22.421Z,12.16
2023-04-25T02:19:25.035Z,12.19
2023-04-25T02:21:27.714Z,12.23
2023-04-25T02:23:30.380Z,12.30
2023-04-25T02:25:32.991Z,12.36
2023-04-25T02:27:35.801Z,12.40
2023-04-25T02:29:39.363Z,12.46
2023-04-25T02:31:42.004Z,12.51
2023-04-25T02:33:45.020Z,12.55
2023-04-25T02:35:47.749Z,12.60
2023-04-25T02:37:50.356Z,12.62
2023-04-25T02:39:52.980Z,12.66
2023-04-25T02:41:55.734Z,12.69
2023-04-25T02:43:58.302Z,12.74
2023-04-25T02:46:01.010Z,12.79
2023-04-25T02:48:04.624Z,12.78
2023-04-25T02:50:07.818Z,12.87
2023-04-25T02:52:10.493Z,12.89
2023-04-25T02:54:13.113Z,12.93
2023-04-25T02:56:15.718Z,12.97
2023-04-25T02:58:18.761Z,13.02
2023-04-25T03:00:21.362Z,13.07
2023-04-25T03:02:23.947Z,13.13
2023-04-25T03:04:26.723Z,13.17
2023-04-25T03:06:29.386Z,13.19
2023-04-25T03:08:33.696Z,13.26
2023-04-25T03:10:36.433Z,13.28
2023-04-25T03:12:39.149Z,13.32
2023-04-25T03:14:41.776Z,13.37
2023-04-25T03:16:44.464Z,13.39
2023-04-25T03:18:47.009Z,13.42
2023-04-25T03:20:49.550Z,13.46
2023-04-25T03:22:52.188Z,13.51
2023-04-25T03:24:54.809Z,13.56
2023-04-25T03:26:57.513Z,13.63
2023-04-25T03:29:00.046Z,13.66
2023-04-25T03:31:02.620Z,13.64
2023-04-25T03:33:05.184Z,13.70
2023-04-25T03:35:08.358Z,13.77
2023-04-25T03:37:11.060Z,13.85
2023-04-25T03:39:13.940Z,13.89
2023-04-25T03:41:16.825Z,13.94
2023-04-25T03:43:19.566Z,14.01
2023-04-25T03:45:22.299Z,14.07
2023-04-25T03:47:24.926Z,14.14
2023-04-25T03:49:27.584Z,14.20
2023-04-25T03:51:30.327Z,14.27
2023-04-25T03:53:32.863Z,14.34
2023-04-25T03:55:35.877Z,14.41
2023-04-25T03:57:38.420Z,14.49
2023-04-25T03:59:41.036Z,14.61
2023-04-25T04:01:43.841Z,14.69
2023-04-25T04:03:46.832Z,14.77
2023-04-25T04:05:49.930Z,14.84
2023-04-25T04:07:52.508Z,14.92
2023-04-25T04:09:55.113Z,15.02
2023-04-25T04:11:57.886Z,15.07
2023-04-25T04:14:01.124Z,15.18
2023-04-25T04:16:05.430Z,15.30
2023-04-25T04:18:08.181Z,15.38
2023-04-25T04:20:11.168Z,15.46
2023-04-25T04:22:13.748Z,15.53
2023-04-25T04:24:17.915Z,15.58
2023-04-25T04:26:20.548Z,15.69
2023-04-25T04:28:23.138Z,15.76
2023-04-25T04:30:26.561Z,15.82
2023-04-25T04:32:29.121Z,15.91
2023-04-25T04:34:32.208Z,16.01
2023-04-25T04:36:34.870Z,16.10
2023-04-25T04:38:38.351Z,16.17
2023-04-25T04:40:44.217Z,16.27
2023-04-25T04:42:46.804Z,16.36
2023-04-25T04:44:49.359Z,16.46
2023-04-25T04:46:53.032Z,16.54
2023-04-25T04:48:57.496Z,16.59
2023-04-25T04:51:00.219Z,16.66
2023-04-25T04:53:03.396Z,16.72
2023-04-25T04:55:06.949Z,16.80
2023-04-25T04:57:09.527Z,16.80
2023-04-25T04:59:12.114Z,16.87
2023-04-25T05:01:17.115Z,16.92
2023-04-25T05:03:19.902Z,16.97
2023-04-25T05:05:22.766Z,16.98
2023-04-25T05:07:26.046Z,17.01
2023-04-25T05:09:28.642Z,17.03
2023-04-25T05:11:31.322Z,17.09
2023-04-25T05:13:34.476Z,17.16
2023-04-25T05:15:37.326Z,17.23
2023-04-25T05:17:40.301Z,17.32
2023-04-25T05:19:43.062Z,17.41
2023-04-25T05:21:45.628Z,17.46
2023-04-25T05:23:48.172Z,17.49
2023-04-25T05:25:50.666Z,17.56
2023-04-25T05:27:53.570Z,17.59
2023-04-25T05:29:56.122Z,17.73
2023-04-25T05:31:58.776Z,17.86
2023-04-25T05:34:01.415Z,17.96
2023-04-25T05:36:04.124Z,17.99
2023-04-25T05:38:06.747Z,18.07
2023-04-25T05:40:09.995Z,18.15
2023-04-25T05:42:12.563Z,18.21
2023-04-25T05:44:17.065Z,18.27
2023-04-25T05:46:19.719Z,18.36
2023-04-25T05:48:22.340Z,18.47
2023-04-25T05:50:25.053Z,18.56
2023-04-25T05:52:27.604Z,18.66
2023-04-25T05:54:30.073Z,18.69
2023-04-25T05:56:32.676Z,18.74
2023-04-25T05:58:35.765Z,18.81
2023-04-25T06:00:39.698Z,18.84
2023-04-25T06:02:42.724Z,18.90
2023-04-25T06:04:45.523Z,19.00
2023-04-25T06:06:48.231Z,19.08
2023-04-25T06:08:51.589Z,19.12
2023-04-25T06:10:54.409Z,19.22
2023-04-25T06:12:56.906Z,19.32
2023-04-25T06:14:59.398Z,19.34
2023-04-25T06:17:07.468Z,19.39
2023-04-25T06:19:10.019Z,19.37
2023-04-25T06:21:12.679Z,19.26
2023-04-25T06:23:15.220Z,19.23
2023-04-25T06:25:17.945Z,19.27
2023-04-25T06:27:20.495Z,19.34
2023-04-25T06:29:23.077Z,19.31
2023-04-25T06:31:26.413Z,19.30
2023-04-25T06:33:29.800Z,19.32
2023-04-25T06:35:32.406Z,19.38
2023-04-25T06:37:34.982Z,19.40
2023-04-25T06:39:39.836Z,19.47
2023-04-25T06:41:43.649Z,19.47
2023-04-25T06:43:46.120Z,19.49
2023-04-25T06:45:48.828Z,19.54
2023-04-25T06:47:51.701Z,19.58
2023-04-25T06:49:54.299Z,19.60
2023-04-25T06:51:57.161Z,19.67
2023-04-25T06:54:00.639Z,19.70
2023-04-25T06:56:04.150Z,19.79
2023-04-25T06:58:06.742Z,19.81
2023-04-25T07:00:10.728Z,19.87
2023-04-25T07:02:13.670Z,19.97
2023-04-25T07:04:16.524Z,20.00
2023-04-25T07:06:19.535Z,20.05
2023-04-25T07:08:22.514Z,20.10
2023-04-25T07:10:25.166Z,20.14
2023-04-25T07:12:27.733Z,20.12
2023-04-25T07:14:30.263Z,20.16
2023-04-25T07:16:33.018Z,20.18
2023-04-25T07:18:35.541Z,20.20
2023-04-25T07:20:38.075Z,20.26
2023-04-25T07:22:40.642Z,20.28
2023-04-25T07:24:43.231Z,20.34
2023-04-25T07:26:46.053Z,20.33
2023-04-25T07:28:52.060Z,20.41
2023-04-25T07:30:54.845Z,20.44
2023-04-25T07:32:57.418Z,20.46
2023-04-25T07:34:59.977Z,20.54
2023-04-25T07:37:02.614Z,20.63
2023-04-25T07:39:05.199Z,20.65
2023-04-25T07:41:07.921Z,20.70
2023-04-25T07:43:13.389Z,20.76
2023-04-25T07:45:16.562Z,20.80
2023-04-25T07:47:20.427Z,20.73
2023-04-25T07:49:23.216Z,20.76
2023-04-25T07:51:25.782Z,20.84
2023-04-25T07:53:28.402Z,20.86
2023-04-25T07:55:31.080Z,20.84
2023-04-25T07:57:33.685Z,20.90
2023-04-25T07:59:36.274Z,20.98
2023-04-25T08:01:38.961Z,21.07
2023-04-25T08:03:41.755Z,21.12
2023-04-25T08:05:44.928Z,21.22
2023-04-25T08:07:47.704Z,21.26
2023-04-25T08:09:50.364Z,21.20
2023-04-25T08:11:53.027Z,21.12
2023-04-25T08:13:55.589Z,21.04
2023-04-25T08:15:58.337Z,20.95
2023-04-25T08:18:00.989Z,20.99
2023-04-25T08:20:06.937Z,20.94
2023-04-25T08:22:10.178Z,20.93
2023-04-25T08:24:12.867Z,20.87
2023-04-25T08:26:16.113Z,20.77
2023-04-25T08:28:18.666Z,20.67
2023-04-25T08:30:22.099Z,20.62
2023-04-25T08:32:24.872Z,20.58
2023-04-25T08:34:27.442Z,20.57
2023-04-25T08:38:35.588Z,20.45
2023-04-25T08:40:40.862Z,20.45
2023-04-25T08:42:44.017Z,20.59
2023-04-25T08:44:47.408Z,20.57
2023-04-25T08:46:51.233Z,20.51
2023-04-25T08:48:57.879Z,20.43
2023-04-25T08:51:03.761Z,20.42
2023-04-25T08:53:11.493Z,20.40
2023-04-25T08:55:15.315Z,20.49
2023-04-25T08:57:18.964Z,20.46
2023-04-25T08:59:23.749Z,20.49
2023-04-25T09:01:26.976Z,20.53
2023-04-25T09:03:29.804Z,20.48
2023-04-25T09:05:36.692Z,20.31
2023-04-25T09:07:39.272Z,20.23
2023-04-25T09:09:41.824Z,20.26
2023-04-25T09:11:44.539Z,20.18
2023-04-25T09:13:47.208Z,20.19
2023-04-25T09:15:57.985Z,20.20
2023-04-25T09:18:01.255Z,20.19
2023-04-25T09:20:09.202Z,20.12
2023-04-25T09:22:11.900Z,20.09
2023-04-25T09:24:14.555Z,20.06
2023-04-25T09:26:19.499Z,20.03
2023-04-25T09:28:28.613Z,20.02
2023-04-25T09:30:35.219Z,20.04
2023-04-25T09:32:38.285Z,20.06
2023-04-25T09:34:45.107Z,20.03
2023-04-25T09:36:47.770Z,20.05
2023-04-25T09:38:50.342Z,20.06
2023-04-25T09:40:53.332Z,20.10
2023-04-25T09:42:56.374Z,20.03
2023-04-25T09:45:00.174Z,20.02
2023-04-25T09:47:04.095Z,20.01
2023-04-25T09:49:09.650Z,19.99
2023-04-25T09:51:15.015Z,20.06
2023-04-25T09:53:17.558Z,20.11
2023-04-25T09:55:21.515Z,20.18
2023-04-25T09:57:25.730Z,20.33
2023-04-25T09:59:32.727Z,20.44
2023-04-25T10:01:37.808Z,20.41
2023-04-25T10:03:48.002Z,20.42
2023-04-25T10:05:55.242Z,20.46
2023-04-25T10:07:58.799Z,20.52
2023-04-25T10:10:06.016Z,20.68
2023-04-25T10:12:10.134Z,20.73
2023-04-25T10:14:14.236Z,20.79
2023-04-25T10:16:17.633Z,20.91
2023-04-25T10:18:21.075Z,20.94
2023-04-25T10:20:24.418Z,20.95
2023-04-25T10:22:37.426Z,20.92
2023-04-25T10:24:40.627Z,20.89
2023-04-25T10:26:44.442Z,20.87
2023-04-25T10:28:58.035Z,20.71
2023-04-25T10:31:06.816Z,20.70
2023-04-25T10:33:20.070Z,20.67
2023-04-25T10:35:33.162Z,20.55
2023-04-25T10:37:39.485Z,20.47
2023-04-25T10:39:45.070Z,20.60
2023-04-25T10:41:54.184Z,20.58
2023-04-25T10:44:04.742Z,20.45
2023-04-25T10:46:21.311Z,20.60
2023-04-25T10:48:28.758Z,20.53
2023-04-25T10:50:40.711Z,20.42
2023-04-25T10:52:45.515Z,20.54
2023-04-25T10:54:55.519Z,20.47
2023-04-25T10:56:59.878Z,20.40
2023-04-25T10:59:19.449Z,20.40
2023-04-25T11:01:25.886Z,20.49
2023-04-25T11:03:28.756Z,20.48
2023-04-25T11:05:51.066Z,20.45
2023-04-25T11:08:07.566Z,20.41
2023-04-25T11:10:11.028Z,20.43
2023-04-25T11:12:14.320Z,20.41
2023-04-25T11:14:16.951Z,20.41
2023-04-25T11:16:27.460Z,20.42
2023-04-25T11:18:31.422Z,20.31
2023-04-25T11:20:34.129Z,20.11
2023-04-25T11:22:36.882Z,19.91
2023-04-25T11:24:39.581Z,19.92
2023-04-25T11:26:48.787Z,19.79
2023-04-25T11:28:51.427Z,19.55
2023-04-25T11:30:54.162Z,19.46
2023-04-25T11:32:56.890Z,19.34
2023-04-25T11:34:59.464Z,19.35
2023-04-25T11:37:03.281Z,19.30
2023-04-25T11:39:07.133Z,19.34
2023-04-25T11:41:09.715Z,19.37
2023-04-25T11:43:12.368Z,19.38
2023-04-25T11:45:16.924Z,19.49
2023-04-25T11:47:19.952Z,19.56
2023-04-25T11:49:23.275Z,19.67
2023-04-25T11:51:26.588Z,19.74
2023-04-25T11:53:29.484Z,19.80
2023-04-25T11:55:32.401Z,19.76
2023-04-25T11:57:35.084Z,19.68
2023-04-25T11:59:37.661Z,19.72
2023-04-25T12:01:42.047Z,19.73
2023-04-25T12:03:47.797Z,19.85
2023-04-25T12:05:51.826Z,19.88
2023-04-25T12:07:54.603Z,19.95
2023-04-25T12:09:57.268Z,19.88
2023-04-25T12:12:03.833Z,19.92
2023-04-25T12:14:06.903Z,19.87
2023-04-25T12:16:09.729Z,19.85
2023-04-25T12:18:12.735Z,19.92
2023-04-25T12:20:17.829Z,19.95
2023-04-25T12:22:25.964Z,19.88
2023-04-25T12:24:29.093Z,19.84
2023-04-25T12:26:47.639Z,19.95
2023-04-25T12:28:50.645Z,20.04
2023-04-25T12:31:06.343Z,19.97
2023-04-25T12:33:09.676Z,19.92
2023-04-25T12:35:12.251Z,19.95
2023-04-25T12:37:15.247Z,20.08
2023-04-25T12:39:18.315Z,20.23
2023-04-25T12:41:20.937Z,20.23
2023-04-25T12:43:23.878Z,20.13
2023-04-25T12:45:26.974Z,19.97
2023-04-25T12:47:29.646Z,19.79
2023-04-25T12:49:33.116Z,19.67
2023-04-25T12:51:37.399Z,19.59
2023-04-25T12:53:41.814Z,19.52
2023-04-25T12:55:47.063Z,19.52
2023-04-25T12:57:49.972Z,19.61
2023-04-25T12:59:52.564Z,19.56
2023-04-25T13:01:55.370Z,19.71
2023-04-25T13:03:58.087Z,19.70
2023-04-25T13:06:00.867Z,19.70
2023-04-25T13:08:03.787Z,19.55
2023-04-25T13:10:08.097Z,19.40
2023-04-25T13:12:11.282Z,19.35
2023-04-25T13:14:14.254Z,19.36
2023-04-25T13:16:17.162Z,19.24
2023-04-25T13:18:20.541Z,19.18
2023-04-25T13:20:23.698Z,19.14
2023-04-25T13:22:26.656Z,19.12
2023-04-25T13:24:29.246Z,19.01
2023-04-25T13:26:32.168Z,18.94
2023-04-25T13:28:35.034Z,18.84
2023-04-25T13:30:38.235Z,18.80
2023-04-25T13:32:42.257Z,18.69
2023-04-25T13:34:47.322Z,18.52
2023-04-25T13:36:50.334Z,18.47
2023-04-25T13:38:53.208Z,18.42
2023-04-25T13:40:56.275Z,18.42
2023-04-25T13:43:00.469Z,18.37
2023-04-25T13:45:03.973Z,18.33
2023-04-25T13:47:11.278Z,18.36
2023-04-25T13:49:14.341Z,18.40
2023-04-25T13:51:18.699Z,18.34
2023-04-25T13:53:22.237Z,18.34
2023-04-25T13:55:24.928Z,18.27
2023-04-25T13:57:27.486Z,18.17
2023-04-25T13:59:30.080Z,18.09
2023-04-25T14:01:35.505Z,17.96
2023-04-25T14:03:38.398Z,17.87
2023-04-25T14:05:42.158Z,17.74
2023-04-25T14:07:46.262Z,17.61
2023-04-25T14:09:49.091Z,17.62
2023-04-25T14:11:51.609Z,17.54
2023-04-25T14:13:54.273Z,17.39
2023-04-25T14:15:57.023Z,17.25
2023-04-25T14:18:00.825Z,17.14
2023-04-25T14:20:03.523Z,16.98
2023-04-25T14:22:07.759Z,16.94
2023-04-25T14:24:12.051Z,16.95
2023-04-25T14:26:14.667Z,16.93
2023-04-25T14:28:17.182Z,16.86
2023-04-25T14:30:21.515Z,16.76
2023-04-25T14:32:24.375Z,16.61
2023-04-25T14:34:27.040Z,16.46
2023-04-25T14:36:30.060Z,16.29
2023-04-25T14:38:32.562Z,16.23
2023-04-25T14:40:35.100Z,16.18
2023-04-25T14:42:38.120Z,16.15
2023-04-25T14:44:40.823Z,16.10
2023-04-25T14:46:43.600Z,16.01
2023-04-25T14:48:46.828Z,15.96
2023-04-25T14:50:49.581Z,15.93
2023-04-25T14:52:53.846Z,15.91
2023-04-25T14:54:56.643Z,15.87
2023-04-25T14:56:59.337Z,15.84
2023-04-25T14:59:01.846Z,15.76
2023-04-25T15:01:04.728Z,15.70
2023-04-25T15:03:08.797Z,15.70
2023-04-25T15:05:11.687Z,15.61
2023-04-25T15:07:15.769Z,15.57
2023-04-25T15:09:20.492Z,15.54
2023-04-25T15:11:23.200Z,15.53
2023-04-25T15:13:26.735Z,15.44
2023-04-25T15:15:29.309Z,15.37
2023-04-25T15:17:32.304Z,15.28
2023-04-25T15:19:34.946Z,15.15
2023-04-25T15:21:37.581Z,15.13
2023-04-25T15:23:40.257Z,15.11
2023-04-25T15:25:43.234Z,15.06
2023-04-25T15:27:47.694Z,15.02
2023-04-25T15:29:50.265Z,15.01
2023-04-25T15:31:53.021Z,14.93
2023-04-25T15:33:55.688Z,14.89
2023-04-25T15:35:59.031Z,14.89
2023-04-25T15:38:01.704Z,14.85
2023-04-25T15:40:10.847Z,14.83
2023-04-25T15:42:13.882Z,14.80
2023-04-25T15:44:16.590Z,14.75
2023-04-25T15:46:19.252Z,14.73
2023-04-25T15:48:21.974Z,14.70
2023-04-25T15:50:25.217Z,14.68
2023-04-25T15:52:27.925Z,14.64
2023-04-25T15:54:32.740Z,14.61
2023-04-25T15:56:35.383Z,14.53
2023-04-25T15:58:38.234Z,14.50
2023-04-25T16:00:40.921Z,14.50
2023-04-25T16:02:45.757Z,14.47
2023-04-25T16:04:48.950Z,14.41
2023-04-25T16:06:52.451Z,14.41
2023-04-25T16:08:55.388Z,14.41
2023-04-25T16:10:58.084Z,14.42
2023-04-25T16:13:00.661Z,14.40
2023-04-25T16:15:04.112Z,14.36
2023-04-25T16:17:08.263Z,14.33
2023-04-25T16:19:11.276Z,14.34
2023-04-25T16:21:17.356Z,14.37
2023-04-25T16:23:20.119Z,14.36
2023-04-25T16:25:22.714Z,14.36
2023-04-25T16:27:25.836Z,14.33
2023-04-25T16:29:28.431Z,14.28
2023-04-25T16:31:31.167Z,14.23
2023-04-25T16:33:34.713Z,14.17
2023-04-25T16:35:37.286Z,14.15
2023-04-25T16:37:39.959Z,14.14
2023-04-25T16:39:42.524Z,14.14
2023-04-25T16:41:45.225Z,14.11
2023-04-25T16:43:47.799Z,14.12
2023-04-25T16:45:50.471Z,14.09
2023-04-25T16:47:53.385Z,14.11
2023-04-25T16:49:56.215Z,14.11
2023-04-25T16:51:58.843Z,14.11
2023-04-25T16:54:01.750Z,14.09
2023-04-25T16:56:04.833Z,14.09
2023-04-25T16:58:09.922Z,14.07
2023-04-25T17:00:13.807Z,14.07
2023-04-25T17:02:17.498Z,14.04
2023-04-25T17:04:20.346Z,14.01
2023-04-25T17:06:23.035Z,13.96
2023-04-25T17:08:25.667Z,13.92
2023-04-25T17:10:28.957Z,13.86
2023-04-25T17:12:31.662Z,13.82
2023-04-25T17:14:36.183Z,13.80
2023-04-25T17:16:39.467Z,13.78
2023-04-25T17:18:43.317Z,13.70
2023-04-25T17:20:46.797Z,13.71
2023-04-25T17:22:49.879Z,13.68
2023-04-25T17:24:52.433Z,13.67
2023-04-25T17:26:57.372Z,13.66
2023-04-25T17:28:59.916Z,13.63
2023-04-25T17:31:02.545Z,13.62
2023-04-25T17:33:06.873Z,13.59
2023-04-25T17:35:10.341Z,13.57
2023-04-25T17:37:16.331Z,13.52
2023-04-25T17:39:20.234Z,13.49
2023-04-25T17:41:22.866Z,13.54
2023-04-25T17:43:26.808Z,13.56
2023-04-25T17:45:34.729Z,13.58
2023-04-25T17:47:37.434Z,13.57
2023-04-25T17:49:40.249Z,13.53
2023-04-25T17:51:42.858Z,13.47
2023-04-25T17:53:45.455Z,13.45
2023-04-25T17:55:50.596Z,13.48
2023-04-25T17:57:53.211Z,13.52
2023-04-25T17:59:57.915Z,13.51
2023-04-25T18:02:01.198Z,13.52
2023-04-25T18:04:04.496Z,13.47
2023-04-25T18:06:07.372Z,13.46
2023-04-25T18:08:10.414Z,13.45
2023-04-25T18:10:13.068Z,13.44
2023-04-25T18:12:15.833Z,13.42
2023-04-25T18:14:20.540Z,13.41
2023-04-25T18:16:23.330Z,13.39
2023-04-25T18:18:33.229Z,13.38
2023-04-25T18:20:35.917Z,13.35
2023-04-25T18:22:38.674Z,13.30
2023-04-25T18:24:41.438Z,13.30
2023-04-25T18:26:48.789Z,13.30
2023-04-25T18:28:52.081Z,13.29
2023-04-25T18:30:55.117Z,13.27
2023-04-25T18:32:59.007Z,13.29
2023-04-25T18:35:01.805Z,13.29
2023-04-25T18:37:08.663Z,13.24
2023-04-25T18:39:21.991Z,13.23
2023-04-25T18:41:51.081Z,13.21
2023-04-25T18:43:49.153Z,13.18
2023-04-25T18:45:52.429Z,13.14
2023-04-25T18:47:55.250Z,13.13
2023-04-25T18:49:57.956Z,13.08
2023-04-25T18:52:01.012Z,13.08
2023-04-25T18:54:04.735Z,13.06
2023-04-25T18:56:07.886Z,13.04
2023-04-25T18:58:10.639Z,13.02
2023-04-25T19:00:14.125Z,13.02
2023-04-25T19:02:18.047Z,13.01
2023-04-25T19:04:21.665Z,12.99
2023-04-25T19:06:29.182Z,12.98
2023-04-25T19:08:31.865Z,12.94
2023-04-25T19:10:34.568Z,12.94
2023-04-25T19:12:37.495Z,12.95
2023-04-25T19:14:40.652Z,12.97
2023-04-25T19:16:43.370Z,12.93
2023-04-25T19:18:47.114Z,12.96
2023-04-25T19:20:49.803Z,12.96
2023-04-25T19:22:52.982Z,12.95
2023-04-25T19:25:02.969Z,12.89
2023-04-25T19:27:11.621Z,12.86
2023-04-25T19:29:15.291Z,12.85
2023-04-25T19:31:19.296Z,12.84
2023-04-25T19:33:22.025Z,12.84
2023-04-25T19:35:24.982Z,12.84
2023-04-25T19:37:27.705Z,12.84
2023-04-25T19:39:30.387Z,12.84
2023-04-25T19:41:36.130Z,12.84
2023-04-25T19:43:38.875Z,12.78
2023-04-25T19:45:41.554Z,12.81
2023-04-25T19:47:45.024Z,12.81
2023-04-25T19:49:47.721Z,12.81
2023-04-25T19:51:50.453Z,12.82
2023-04-25T19:53:56.300Z,12.80
2023-04-25T19:55:59.214Z,12.81
2023-04-25T19:58:02.690Z,12.79
2023-04-25T20:00:14.464Z,12.80
2023-04-25T20:02:18.470Z,12.76
2023-04-25T20:04:21.392Z,12.72
2023-04-25T20:06:24.037Z,12.69
2023-04-25T20:08:26.683Z,12.71
2023-04-25T20:10:29.289Z,12.70
2023-04-25T20:12:32.223Z,12.72
2023-04-25T20:14:34.861Z,12.74
2023-04-25T20:16:37.605Z,12.72
2023-04-25T20:18:40.406Z,12.72
2023-04-25T20:20:42.964Z,12.71
2023-04-25T20:22:45.688Z,12.71
2023-04-25T20:24:48.252Z,12.70
2023-04-25T20:26:51.003Z,12.68
2023-04-25T20:28:54.227Z,12.65
2023-04-25T20:30:57.178Z,12.63
2023-04-25T20:33:01.866Z,12.63
2023-04-25T20:35:07.345Z,12.61
2023-04-25T20:37:10.057Z,12.61
2023-04-25T20:39:12.808Z,12.59
2023-04-25T20:41:15.980Z,12.61
2023-04-25T20:43:19.986Z,12.61
2023-04-25T20:45:24.578Z,12.63
2023-04-25T20:47:27.785Z,12.61
2023-04-25T20:49:30.381Z,12.64
2023-04-25T20:51:33.704Z,12.66
2023-04-25T20:53:36.551Z,12.67
2023-04-25T20:55:41.691Z,12.64
2023-04-25T20:57:44.280Z,12.62
2023-04-25T20:59:47.824Z,12.61
2023-04-25T21:02:19.824Z,12.62
2023-04-25T21:04:24.321Z,12.57
2023-04-25T21:06:27.817Z,12.56
2023-04-25T21:08:30.615Z,12.58
2023-04-25T21:10:34.953Z,12.59
2023-04-25T21:12:38.897Z,12.52
2023-04-25T21:14:41.698Z,12.54
2023-04-25T21:16:44.479Z,12.57
2023-04-25T21:18:47.152Z,12.55
2023-04-25T21:20:49.990Z,12.51
2023-04-25T21:22:54.167Z,12.51
2023-04-25T21:24:57.403Z,12.52
2023-04-25T21:27:00.126Z,12.50
2023-04-25T21:29:02.984Z,12.47
2023-04-25T21:31:05.777Z,12.47
2023-04-25T21:33:08.657Z,12.48
2023-04-25T21:35:12.044Z,12.44
2023-04-25T21:37:14.850Z,12.45
2023-04-25T21:39:17.629Z,12.47
2023-04-25T21:41:20.392Z,12.47
2023-04-25T21:43:23.098Z,12.45
2023-04-25T21:45:26.063Z,12.44
2023-04-25T21:47:29.641Z,12.44
2023-04-25T21:49:33.069Z,12.43
2023-04-25T21:51:35.778Z,12.42
2023-04-25T21:53:38.443Z,12.42
2023-04-25T21:55:41.163Z,12.42
2023-04-25T21:57:43.922Z,12.39
2023-04-25T21:59:46.764Z,12.36
2023-04-25T22:01:50.145Z,12.33
2023-04-25T22:03:53.004Z,12.31
2023-04-25T22:05:56.689Z,12.25
2023-04-25T22:07:59.484Z,12.24
2023-04-25T22:10:02.799Z,12.25
2023-04-25T22:12:06.257Z,12.23
2023-04-25T22:14:10.034Z,12.22
2023-04-25T22:16:12.885Z,12.24
2023-04-25T22:18:16.497Z,12.23
2023-04-25T22:20:23.337Z,12.21
2023-04-25T22:22:26.647Z,12.19
2023-04-25T22:24:30.200Z,12.19
2023-04-25T22:26:33.768Z,12.16
2023-04-25T22:28:37.427Z,12.14
2023-04-25T22:30:40.230Z,12.14
2023-04-25T22:32:43.619Z,12.10
2023-04-25T22:34:46.996Z,12.10
2023-04-25T22:36:49.757Z,12.11
2023-04-25T22:38:53.296Z,12.09
2023-04-25T22:40:56.545Z,12.07
2023-04-25T22:42:59.293Z,12.07
2023-04-25T22:45:02.243Z,12.06
2023-04-25T22:47:06.508Z,12.04
2023-04-25T22:49:09.191Z,12.01
2023-04-25T22:51:12.937Z,11.92
2023-04-25T22:53:16.536Z,11.94
2023-04-25T22:55:19.291Z,11.89
2023-04-25T22:57:23.244Z,11.88
2023-04-25T22:59:26.420Z,11.84
2023-04-25T23:01:29.356Z,11.83
2023-04-25T23:03:32.754Z,11.83
2023-04-25T23:05:35.674Z,11.83
2023-04-25T23:07:39.076Z,11.84
2023-04-25T23:09:41.956Z,11.83
2023-04-25T23:11:44.886Z,11.86
2023-04-25T23:13:48.321Z,11.85
2023-04-25T23:15:51.006Z,11.87
2023-04-25T23:17:53.885Z,11.87
2023-04-25T23:19:56.670Z,11.85
2023-04-25T23:22:00.176Z,11.85
2023-04-25T23:24:02.934Z,11.85
2023-04-25T23:26:09.900Z,11.87
2023-04-25T23:28:12.993Z,11.86
2023-04-25T23:30:16.108Z,11.87
2023-04-25T23:32:18.802Z,11.85
2023-04-25T23:34:21.718Z,11.85
2023-04-25T23:36:24.545Z,11.81
2023-04-25T23:38:27.650Z,11.80
2023-04-25T23:40:31.923Z,11.79
2023-04-25T23:42:35.470Z,11.79
2023-04-25T23:44:38.208Z,11.80
2023-04-25T23:46:41.754Z,11.84
2023-04-25T23:48:44.549Z,11.85
2023-04-25T23:50:47.329Z,11.84
2023-04-25T23:52:50.061Z,11.82
2023-04-25T23:54:52.727Z,11.80
2023-04-25T23:56:55.413Z,11.81
2023-04-25T23:58:58.438Z,11.78
